Time;durP1;ratioP1;P1;durP2;ratioP2;P2;SDS_P1;SDS_P2;PMS_P1;PMS_P2;Temp;Humidity;BMP_temperature;BMP_pressure;BME280_temperature;BME280_humidity;BME280_pressure;Samples;Min_cycle;Max_cycle;Signal;HPM_P1;HPM_P2
2021/11/15 00:02:14;;;;;;;17.47;11.43;;;;;;;;;;5055831;28;20401;-51
2021/11/15 00:04:40;;;;;;;21.10;11.90;;;;;;;;;;5056089;28;20405;-52
2021/11/15 00:07:06;;;;;;;18.90;11.93;;;;;;;;;;5056489;28;20397;-52
2021/11/15 00:09:32;;;;;;;18.67;11.63;;;;;;;;;;5055847;28;20811;-52
2021/11/15 00:12:00;;;;;;;23.47;13.30;;;;;;;;;;5055928;28;20520;-51
2021/11/15 00:14:26;;;;;;;18.80;12.30;;;;;;;;;;5055386;28;20473;-51
2021/11/15 00:16:52;;;;;;;21.23;13.43;;;;;;;;;;5056124;28;20405;-50
2021/11/15 00:19:18;;;;;;;20.07;13.30;;;;;;;;;;5055310;28;20873;-50
2021/11/15 00:21:44;;;;;;;20.20;12.93;;;;;;;;;;5055627;28;20401;-51
2021/11/15 00:24:10;;;;;;;19.90;11.90;;;;;;;;;;5054316;28;20802;-50
2021/11/15 00:26:36;;;;;;;21.30;12.93;;;;;;;;;;5055326;28;20420;-51
2021/11/15 00:29:02;;;;;;;22.43;13.33;;;;;;;;;;5056749;28;20410;-50
2021/11/15 00:31:28;;;;;;;15.83;12.10;;;;;;;;;;5059404;28;20487;-51
2021/11/15 00:33:54;;;;;;;16.97;12.30;;;;;;;;;;5059027;28;20421;-50
2021/11/15 00:36:21;;;;;;;19.70;12.53;;;;;;;;;;5058188;28;20402;-51
2021/11/15 00:38:47;;;;;;;23.27;13.20;;;;;;;;;;5059221;28;20466;-51
2021/11/15 00:41:13;;;;;;;19.80;13.27;;;;;;;;;;5059344;28;20451;-52
2021/11/15 00:43:39;;;;;;;20.17;12.90;;;;;;;;;;5058794;28;20868;-50
2021/11/15 00:46:05;;;;;;;15.73;12.53;;;;;;;;;;5058640;28;20400;-49
2021/11/15 00:48:32;;;;;;;21.63;13.40;;;;;;;;;;5058006;28;20408;-51
2021/11/15 00:50:58;;;;;;;19.80;12.90;;;;;;;;;;5058460;28;20405;-51
2021/11/15 00:53:24;;;;;;;22.03;13.13;;;;;;;;;;5058721;28;20479;-51
2021/11/15 00:55:50;;;;;;;21.37;12.97;;;;;;;;;;5059690;28;20429;-51
2021/11/15 00:58:16;;;;;;;22.13;14.60;;;;;;;;;;5058913;28;20481;-52
2021/11/15 01:00:42;;;;;;;22.90;13.87;;;;;;;;;;5059194;28;20402;-49
2021/11/15 01:03:09;;;;;;;22.57;13.90;;;;;;;;;;5057974;28;20886;-51
2021/11/15 01:05:36;;;;;;;25.00;14.00;;;;;;;;;;5058467;28;20469;-51
2021/11/15 01:08:02;;;;;;;26.80;14.60;;;;;;;;;;5058770;28;20405;-49
2021/11/15 01:10:28;;;;;;;21.80;13.03;;;;;;;;;;5058528;28;20778;-49
2021/11/15 01:12:54;;;;;;;23.93;14.50;;;;;;;;;;5057435;28;20464;-50
2021/11/15 01:15:22;;;;;;;25.93;14.57;;;;;;;;;;5059035;28;20409;-51
2021/11/15 01:17:49;;;;;;;20.70;13.97;;;;;;;;;;5058146;28;20459;-51
2021/11/15 01:20:16;;;;;;;23.57;13.90;;;;;;;;;;5058820;28;20810;-49
2021/11/15 01:22:42;;;;;;;23.43;14.60;;;;;;;;;;5057674;28;20425;-51
2021/11/15 01:25:09;;;;;;;21.83;15.03;;;;;;;;;;5057854;28;20414;-51
2021/11/15 01:27:36;;;;;;;27.87;14.70;;;;;;;;;;5057368;28;20437;-49
2021/11/15 01:30:02;;;;;;;23.10;14.13;;;;;;;;;;5056762;28;20427;-51
2021/11/15 01:32:28;;;;;;;22.77;16.27;;;;;;;;;;5056477;28;20464;-49
2021/11/15 01:34:54;;;;;;;23.93;15.90;;;;;;;;;;5057327;28;20562;-49
2021/11/15 01:37:21;;;;;;;25.80;15.73;;;;;;;;;;5058272;28;21330;-49
2021/11/15 01:39:47;;;;;;;23.90;14.50;;;;;;;;;;5058435;28;20433;-51
2021/11/15 01:42:13;;;;;;;28.13;15.40;;;;;;;;;;5057943;28;20398;-48
2021/11/15 01:44:39;;;;;;;21.90;14.17;;;;;;;;;;5057768;28;20408;-51
2021/11/15 01:47:06;;;;;;;23.10;14.80;;;;;;;;;;5057160;28;20396;-49
2021/11/15 01:49:32;;;;;;;24.43;15.20;;;;;;;;;;5057168;28;20415;-50
2021/11/15 01:51:58;;;;;;;23.60;15.20;;;;;;;;;;5056433;28;20870;-50
2021/11/15 01:54:24;;;;;;;31.67;16.10;;;;;;;;;;5056339;28;20419;-49
2021/11/15 01:56:51;;;;;;;24.90;14.47;;;;;;;;;;5057132;28;20427;-50
2021/11/15 01:59:17;;;;;;;26.90;16.87;;;;;;;;;;5056538;28;20491;-50
2021/11/15 02:01:43;;;;;;;34.10;15.20;;;;;;;;;;5055267;28;20412;-51
2021/11/15 02:04:09;;;;;;;24.73;14.70;;;;;;;;;;5056180;28;20506;-51
2021/11/15 02:06:36;;;;;;;23.90;14.33;;;;;;;;;;5055522;28;20480;-49
2021/11/15 02:09:03;;;;;;;22.17;14.27;;;;;;;;;;5056819;28;20838;-49
2021/11/15 02:11:29;;;;;;;24.13;15.33;;;;;;;;;;5056526;28;20958;-49
2021/11/15 02:13:55;;;;;;;21.87;15.07;;;;;;;;;;5055936;28;20421;-49
2021/11/15 02:16:21;;;;;;;25.83;15.60;;;;;;;;;;5056575;28;20395;-50
2021/11/15 02:18:47;;;;;;;26.83;15.07;;;;;;;;;;5056651;28;20876;-49
2021/11/15 02:21:13;;;;;;;23.10;15.33;;;;;;;;;;5056583;28;20400;-50
2021/11/15 02:23:41;;;;;;;27.10;16.50;;;;;;;;;;5055540;28;20508;-49
2021/11/15 02:26:09;;;;;;;23.43;14.87;;;;;;;;;;5055727;28;20408;-50
2021/11/15 02:28:36;;;;;;;26.87;15.73;;;;;;;;;;5056576;28;20967;-49
2021/11/15 02:31:03;;;;;;;29.60;15.37;;;;;;;;;;5056367;28;20769;-52
2021/11/15 02:33:31;;;;;;;29.93;16.07;;;;;;;;;;5056549;28;20427;-51
2021/11/15 02:35:57;;;;;;;26.97;16.73;;;;;;;;;;5055611;28;20768;-51
2021/11/15 02:38:23;;;;;;;26.10;15.17;;;;;;;;;;5056132;28;20399;-51
2021/11/15 02:40:49;;;;;;;28.03;16.27;;;;;;;;;;5056148;28;20403;-51
2021/11/15 02:43:15;;;;;;;30.33;15.93;;;;;;;;;;5056616;28;20503;-51
2021/11/15 02:45:42;;;;;;;28.50;15.27;;;;;;;;;;5055334;28;20429;-51
2021/11/15 02:48:08;;;;;;;26.90;15.27;;;;;;;;;;5056076;28;20411;-52
2021/11/15 02:50:34;;;;;;;24.60;15.27;;;;;;;;;;5056359;28;20411;-52
2021/11/15 02:53:03;;;;;;;24.50;14.67;;;;;;;;;;5056084;28;20462;-49
2021/11/15 02:55:29;;;;;;;27.70;16.57;;;;;;;;;;5056722;28;20893;-49
2021/11/15 02:57:56;;;;;;;28.90;16.60;;;;;;;;;;5056601;28;20393;-49
2021/11/15 03:00:28;;;;;;;27.20;16.10;;;;;;;;;;5057042;28;20397;-52
2021/11/15 03:02:55;;;;;;;31.43;16.37;;;;;;;;;;5056762;28;20434;-50
2021/11/15 03:05:22;;;;;;;28.57;15.77;;;;;;;;;;5057064;28;20602;-51
2021/11/15 03:07:48;;;;;;;31.10;16.90;;;;;;;;;;5057148;28;20412;-51
2021/11/15 03:10:14;;;;;;;26.50;16.27;;;;;;;;;;5057150;28;20450;-51
2021/11/15 03:12:40;;;;;;;23.77;15.30;;;;;;;;;;5056923;28;20463;-51
2021/11/15 03:15:07;;;;;;;26.53;15.40;;;;;;;;;;5057330;28;20886;-51
2021/11/15 03:17:38;;;;;;;28.80;14.67;;;;;;;;;;5056200;28;20411;-52
2021/11/15 03:20:04;;;;;;;25.23;15.37;;;;;;;;;;5056775;28;20753;-50
2021/11/15 03:22:30;;;;;;;28.70;15.37;;;;;;;;;;5055907;28;20838;-50
2021/11/15 03:24:56;;;;;;;24.77;13.13;;;;;;;;;;5056725;28;20404;-49
2021/11/15 03:27:22;;;;;;;32.87;17.17;;;;;;;;;;5056819;28;20500;-51
2021/11/15 03:29:48;;;;;;;25.70;15.00;;;;;;;;;;5056948;28;20409;-52
2021/11/15 03:32:14;;;;;;;28.53;15.60;;;;;;;;;;5056281;28;20456;-53
2021/11/15 03:34:40;;;;;;;22.70;13.50;;;;;;;;;;5056495;28;20907;-51
2021/11/15 03:37:07;;;;;;;29.57;15.53;;;;;;;;;;5056809;28;20402;-51
2021/11/15 03:39:33;;;;;;;27.33;15.50;;;;;;;;;;5056711;28;20777;-52
2021/11/15 03:41:59;;;;;;;26.80;15.07;;;;;;;;;;5056670;28;20411;-51
2021/11/15 03:44:25;;;;;;;29.00;15.70;;;;;;;;;;5056388;28;20430;-52
2021/11/15 03:46:51;;;;;;;26.13;15.67;;;;;;;;;;5056501;28;20416;-51
2021/11/15 03:49:17;;;;;;;31.80;16.30;;;;;;;;;;5056780;28;20431;-49
2021/11/15 03:51:43;;;;;;;27.30;15.93;;;;;;;;;;5056009;28;20460;-51
2021/11/15 03:54:09;;;;;;;28.27;15.90;;;;;;;;;;5056123;28;20427;-51
2021/11/15 03:56:35;;;;;;;30.40;17.27;;;;;;;;;;5056611;28;20423;-52
2021/11/15 03:59:01;;;;;;;29.53;16.00;;;;;;;;;;5056698;28;20796;-51
2021/11/15 04:01:31;;;;;;;26.30;15.60;;;;;;;;;;5056786;28;20438;-49
2021/11/15 04:04:03;;;;;;;30.70;16.40;;;;;;;;;;5056376;28;20427;-49
2021/11/15 04:06:30;;;;;;;27.57;15.77;;;;;;;;;;5059974;28;20412;-48
2021/11/15 04:08:58;;;;;;;28.60;15.17;;;;;;;;;;5057137;28;20402;-50
2021/11/15 04:11:25;;;;;;;27.47;14.07;;;;;;;;;;5055166;28;20462;-50
2021/11/15 04:13:54;;;;;;;28.23;14.40;;;;;;;;;;5054750;28;20419;-50
2021/11/15 04:16:20;;;;;;;28.90;14.90;;;;;;;;;;5054904;28;20406;-49
2021/11/15 04:18:49;;;;;;;24.20;13.97;;;;;;;;;;5054914;28;20407;-50
2021/11/15 04:21:16;;;;;;;25.40;13.90;;;;;;;;;;5054998;28;20407;-51
2021/11/15 04:23:42;;;;;;;28.53;15.03;;;;;;;;;;5054616;28;20933;-49
2021/11/15 04:26:08;;;;;;;25.30;14.93;;;;;;;;;;5054861;28;20468;-50
2021/11/15 04:28:34;;;;;;;27.60;14.60;;;;;;;;;;5054707;28;20403;-50
2021/11/15 04:31:00;;;;;;;33.07;14.83;;;;;;;;;;5054694;28;20414;-50
2021/11/15 04:33:26;;;;;;;32.47;15.23;;;;;;;;;;5054290;28;20465;-50
2021/11/15 04:35:53;;;;;;;25.13;13.90;;;;;;;;;;5054661;28;20827;-50
2021/11/15 04:38:19;;;;;;;25.23;14.23;;;;;;;;;;5054586;28;20900;-49
2021/11/15 04:40:45;;;;;;;23.50;14.57;;;;;;;;;;5054951;28;20814;-49
2021/11/15 04:43:11;;;;;;;25.87;13.73;;;;;;;;;;5054183;28;20426;-50
2021/11/15 04:45:37;;;;;;;23.87;13.60;;;;;;;;;;5054359;28;20491;-50
2021/11/15 04:48:04;;;;;;;26.30;13.90;;;;;;;;;;5054475;28;20862;-50
2021/11/15 04:50:30;;;;;;;30.40;15.33;;;;;;;;;;5054498;28;20679;-50
2021/11/15 04:52:56;;;;;;;28.97;15.10;;;;;;;;;;5054166;28;20548;-49
2021/11/15 04:55:23;;;;;;;22.00;14.13;;;;;;;;;;5054172;28;20484;-49
2021/11/15 04:57:49;;;;;;;25.63;13.47;;;;;;;;;;5054223;28;20440;-50
2021/11/15 05:00:18;;;;;;;26.57;14.50;;;;;;;;;;5054077;28;20748;-50
2021/11/15 05:02:44;;;;;;;21.70;14.23;;;;;;;;;;5053893;28;20427;-49
2021/11/15 05:05:10;;;;;;;24.07;14.10;;;;;;;;;;5054130;28;20957;-49
2021/11/15 05:07:36;;;;;;;27.53;15.43;;;;;;;;;;5054078;28;20488;-49
2021/11/15 05:10:03;;;;;;;25.33;15.33;;;;;;;;;;5054053;28;20899;-50
2021/11/15 05:12:34;;;;;;;25.50;14.87;;;;;;;;;;5053658;28;20446;-49
2021/11/15 05:15:00;;;;;;;26.57;14.93;;;;;;;;;;5053895;28;20407;-49
2021/11/15 05:17:26;;;;;;;28.00;16.03;;;;;;;;;;5054031;28;20416;-49
2021/11/15 05:19:52;;;;;;;26.07;16.43;;;;;;;;;;5053974;28;20403;-50
2021/11/15 05:22:18;;;;;;;25.83;14.60;;;;;;;;;;5053583;28;20405;-49
2021/11/15 05:24:44;;;;;;;22.40;14.23;;;;;;;;;;5053822;28;20946;-50
2021/11/15 05:27:10;;;;;;;29.67;14.70;;;;;;;;;;5053839;28;21035;-50
2021/11/15 05:29:36;;;;;;;27.80;15.73;;;;;;;;;;5054095;28;20403;-50
2021/11/15 05:32:02;;;;;;;24.80;15.00;;;;;;;;;;5053633;28;20958;-50
2021/11/15 05:34:28;;;;;;;25.83;16.13;;;;;;;;;;5053343;28;20991;-51
2021/11/15 05:36:54;;;;;;;24.30;14.50;;;;;;;;;;5053547;28;20399;-50
2021/11/15 05:39:20;;;;;;;23.10;14.70;;;;;;;;;;5053538;28;20401;-48
2021/11/15 05:41:46;;;;;;;27.73;15.87;;;;;;;;;;5053756;28;20700;-50
2021/11/15 05:44:12;;;;;;;26.57;15.00;;;;;;;;;;5053157;28;20414;-50
2021/11/15 05:46:38;;;;;;;26.37;14.93;;;;;;;;;;5053258;28;20403;-49
2021/11/15 05:49:04;;;;;;;33.00;16.30;;;;;;;;;;5053404;28;20399;-50
2021/11/15 05:51:30;;;;;;;25.83;15.93;;;;;;;;;;5053069;28;20444;-50
2021/11/15 05:53:57;;;;;;;25.37;14.40;;;;;;;;;;5052964;28;20791;-49
2021/11/15 05:56:23;;;;;;;34.90;17.17;;;;;;;;;;5052861;28;20695;-51
2021/11/15 05:58:49;;;;;;;28.27;15.17;;;;;;;;;;5053223;28;20735;-51
2021/11/15 06:01:15;;;;;;;28.57;16.33;;;;;;;;;;5053091;28;20404;-50
2021/11/15 06:03:41;;;;;;;23.80;15.17;;;;;;;;;;5052806;28;20510;-50
2021/11/15 06:06:07;;;;;;;23.70;15.30;;;;;;;;;;5052851;28;20956;-49
2021/11/15 06:08:33;;;;;;;30.60;16.70;;;;;;;;;;5052984;28;20964;-50
2021/11/15 06:10:59;;;;;;;29.47;15.00;;;;;;;;;;5052716;28;20403;-49
2021/11/15 06:13:25;;;;;;;29.03;15.33;;;;;;;;;;5052660;28;20974;-49
2021/11/15 06:15:51;;;;;;;27.57;15.70;;;;;;;;;;5052713;28;20404;-51
2021/11/15 06:18:17;;;;;;;34.67;15.53;;;;;;;;;;5052861;28;20431;-50
2021/11/15 06:20:44;;;;;;;30.00;15.10;;;;;;;;;;5052671;28;20431;-50
2021/11/15 06:23:10;;;;;;;27.43;15.47;;;;;;;;;;5052405;28;20433;-50
2021/11/15 06:25:36;;;;;;;36.00;16.77;;;;;;;;;;5052493;28;20821;-51
2021/11/15 06:28:02;;;;;;;26.17;15.23;;;;;;;;;;5051867;28;20783;-51
2021/11/15 06:30:29;;;;;;;28.43;15.00;;;;;;;;;;5052591;28;20426;-50
2021/11/15 06:32:55;;;;;;;30.23;16.40;;;;;;;;;;5052055;28;20500;-50
2021/11/15 06:35:21;;;;;;;32.17;18.03;;;;;;;;;;5052458;28;20481;-49
2021/11/15 06:37:47;;;;;;;29.07;16.40;;;;;;;;;;5052172;28;20813;-50
2021/11/15 06:40:15;;;;;;;31.57;15.47;;;;;;;;;;5052184;28;20899;-50
2021/11/15 06:42:41;;;;;;;30.27;16.90;;;;;;;;;;5051916;28;20839;-50
2021/11/15 06:45:07;;;;;;;27.03;15.33;;;;;;;;;;5052346;28;20415;-51
2021/11/15 06:47:35;;;;;;;27.07;15.30;;;;;;;;;;5052055;28;20407;-50
2021/11/15 06:50:01;;;;;;;28.90;15.00;;;;;;;;;;5052262;28;20416;-50
2021/11/15 06:52:28;;;;;;;26.80;14.30;;;;;;;;;;5051763;28;20445;-50
2021/11/15 06:54:54;;;;;;;24.93;12.60;;;;;;;;;;5051868;28;20399;-49
2021/11/15 06:57:20;;;;;;;26.87;13.30;;;;;;;;;;5052024;28;20413;-49
2021/11/15 06:59:46;;;;;;;23.27;12.60;;;;;;;;;;5052039;28;20408;-51
2021/11/15 07:02:12;;;;;;;21.83;12.83;;;;;;;;;;5051651;28;20403;-50
2021/11/15 07:04:38;;;;;;;26.60;12.90;;;;;;;;;;5052114;28;20405;-51
2021/11/15 07:07:04;;;;;;;21.90;12.20;;;;;;;;;;5051849;28;20408;-49
2021/11/15 07:09:30;;;;;;;24.57;13.20;;;;;;;;;;5051692;28;20415;-50
2021/11/15 07:11:56;;;;;;;22.40;11.50;;;;;;;;;;5051795;28;20480;-50
2021/11/15 07:14:22;;;;;;;25.20;12.70;;;;;;;;;;5051595;28;20418;-50
2021/11/15 07:16:48;;;;;;;25.10;13.60;;;;;;;;;;5051806;28;20875;-49
2021/11/15 07:19:14;;;;;;;20.57;12.23;;;;;;;;;;5051730;28;20405;-50
2021/11/15 07:21:40;;;;;;;28.60;12.67;;;;;;;;;;5051907;28;20828;-49
2021/11/15 07:24:06;;;;;;;26.60;12.93;;;;;;;;;;5051290;28;20453;-50
2021/11/15 07:26:32;;;;;;;21.67;11.93;;;;;;;;;;5051682;28;20410;-49
2021/11/15 07:28:58;;;;;;;19.77;10.57;;;;;;;;;;5051662;28;20402;-49
2021/11/15 07:31:25;;;;;;;18.53;10.90;;;;;;;;;;5051719;28;20450;-50
2021/11/15 07:33:51;;;;;;;20.50;11.93;;;;;;;;;;5051244;28;20429;-49
2021/11/15 07:36:17;;;;;;;20.90;10.93;;;;;;;;;;5051609;28;20410;-50
2021/11/15 07:38:43;;;;;;;23.37;11.47;;;;;;;;;;5053836;28;20778;-50
2021/11/15 07:41:09;;;;;;;26.20;12.57;;;;;;;;;;5055918;28;20485;-50
2021/11/15 07:43:36;;;;;;;21.17;11.60;;;;;;;;;;5054034;28;20947;-49
2021/11/15 07:46:02;;;;;;;22.73;12.67;;;;;;;;;;5055617;28;20471;-50
2021/11/15 07:48:29;;;;;;;26.50;14.37;;;;;;;;;;5055675;28;20445;-49
2021/11/15 07:50:55;;;;;;;25.77;14.00;;;;;;;;;;5055627;28;20402;-49
2021/11/15 07:53:21;;;;;;;30.13;14.23;;;;;;;;;;5055127;28;20508;-49
2021/11/15 07:55:47;;;;;;;27.37;14.60;;;;;;;;;;5055234;28;20509;-50
2021/11/15 07:58:14;;;;;;;28.17;13.30;;;;;;;;;;5055342;28;20399;-50
2021/11/15 08:00:40;;;;;;;29.17;16.23;;;;;;;;;;5055360;28;20399;-50
2021/11/15 08:03:07;;;;;;;29.80;15.70;;;;;;;;;;5055053;28;20450;-49
2021/11/15 08:05:33;;;;;;;29.17;15.07;;;;;;;;;;5055170;28;20409;-49
2021/11/15 08:07:59;;;;;;;29.73;14.63;;;;;;;;;;5055144;28;20493;-49
2021/11/15 08:10:25;;;;;;;29.40;15.63;;;;;;;;;;5055409;28;20403;-49
2021/11/15 08:12:53;;;;;;;30.93;16.03;;;;;;;;;;5054960;28;20998;-49
2021/11/15 08:15:20;;;;;;;31.80;15.70;;;;;;;;;;5055080;28;20407;-50
2021/11/15 08:17:47;;;;;;;33.67;16.67;;;;;;;;;;5055144;28;20407;-51
2021/11/15 08:20:15;;;;;;;29.90;15.90;;;;;;;;;;5054870;28;20411;-50
2021/11/15 08:22:41;;;;;;;33.17;15.83;;;;;;;;;;5054741;28;20521;-51
2021/11/15 08:25:26;;;;;;;29.63;14.97;;;;;;;;;;5054860;28;20836;-49
2021/11/15 08:27:53;;;;;;;27.37;15.57;;;;;;;;;;5054790;28;20416;-50
2021/11/15 08:30:19;;;;;;;27.57;15.07;;;;;;;;;;5055268;28;20398;-49
2021/11/15 08:32:45;;;;;;;29.00;14.67;;;;;;;;;;5054309;28;20460;-50
2021/11/15 08:35:11;;;;;;;32.13;15.57;;;;;;;;;;5054745;28;20762;-50
2021/11/15 08:37:41;;;;;;;30.83;16.47;;;;;;;;;;5054519;28;20903;-50
2021/11/15 08:40:07;;;;;;;30.93;14.93;;;;;;;;;;5054564;28;20461;-51
2021/11/15 08:42:33;;;;;;;34.00;16.53;;;;;;;;;;5054308;28;20423;-49
2021/11/15 08:45:01;;;;;;;36.27;16.10;;;;;;;;;;5054456;28;20410;-50
2021/11/15 08:47:28;;;;;;;23.97;15.00;;;;;;;;;;5054472;28;20402;-50
2021/11/15 08:49:53;;;;;;;29.63;15.70;;;;;;;;;;5053646;28;20439;-50
2021/11/15 08:52:19;;;;;;;26.03;14.73;;;;;;;;;;5054048;28;20493;-49
2021/11/15 08:54:51;;;;;;;26.00;14.37;;;;;;;;;;5054281;28;20499;-49
2021/11/15 08:57:17;;;;;;;26.57;12.53;;;;;;;;;;5054180;28;20416;-51
2021/11/15 08:59:43;;;;;;;24.70;12.57;;;;;;;;;;5054124;28;20903;-50
2021/11/15 09:02:09;;;;;;;25.83;13.37;;;;;;;;;;5054131;28;20771;-50
2021/11/15 09:04:37;;;;;;;22.23;12.27;;;;;;;;;;5054078;28;20769;-50
2021/11/15 09:07:03;;;;;;;22.80;12.80;;;;;;;;;;5054136;28;20902;-50
2021/11/15 09:09:29;;;;;;;26.30;13.93;;;;;;;;;;5054112;28;20410;-50
2021/11/15 09:11:57;;;;;;;20.07;12.27;;;;;;;;;;5053949;28;20509;-49
2021/11/15 09:14:23;;;;;;;28.00;11.83;;;;;;;;;;5053635;28;20469;-50
2021/11/15 09:16:51;;;;;;;22.30;12.70;;;;;;;;;;5054372;28;20762;-50
2021/11/15 09:19:18;;;;;;;20.40;12.13;;;;;;;;;;5061145;28;20420;-49
2021/11/15 09:21:44;;;;;;;24.00;12.60;;;;;;;;;;5053695;28;20417;-49
2021/11/15 09:24:10;;;;;;;22.33;12.10;;;;;;;;;;5053389;28;20558;-52
2021/11/15 09:26:37;;;;;;;21.97;12.20;;;;;;;;;;5053689;28;20493;-49
2021/11/15 09:29:03;;;;;;;28.23;12.60;;;;;;;;;;5053665;28;20993;-49
2021/11/15 09:31:29;;;;;;;22.00;11.17;;;;;;;;;;5053459;28;20407;-52
2021/11/15 09:33:56;;;;;;;21.33;11.03;;;;;;;;;;5053395;28;20421;-51
2021/11/15 09:36:23;;;;;;;23.70;12.90;;;;;;;;;;5053467;28;20409;-51
2021/11/15 09:38:51;;;;;;;21.87;12.70;;;;;;;;;;5052486;28;20402;-50
2021/11/15 09:41:17;;;;;;;17.23;11.03;;;;;;;;;;5051536;28;20402;-49
2021/11/15 09:43:43;;;;;;;24.20;12.70;;;;;;;;;;5052661;28;20509;-49
2021/11/15 09:46:13;;;;;;;20.43;12.17;;;;;;;;;;5053309;28;20403;-51
2021/11/15 09:48:41;;;;;;;24.33;13.33;;;;;;;;;;5053175;28;20400;-50
2021/11/15 09:51:07;;;;;;;17.60;11.30;;;;;;;;;;5053285;28;20441;-50
2021/11/15 09:53:34;;;;;;;17.90;11.07;;;;;;;;;;5052957;28;20586;-49
2021/11/15 09:56:00;;;;;;;19.40;11.50;;;;;;;;;;5052897;28;20518;-49
2021/11/15 09:58:27;;;;;;;16.43;10.80;;;;;;;;;;5053449;28;20413;-50
2021/11/15 10:00:53;;;;;;;22.60;12.00;;;;;;;;;;5052568;28;20458;-51
2021/11/15 10:03:19;;;;;;;18.07;10.97;;;;;;;;;;5052303;28;20431;-50
2021/11/15 10:05:46;;;;;;;15.93;11.70;;;;;;;;;;5052126;28;20424;-50
2021/11/15 10:08:12;;;;;;;15.83;10.67;;;;;;;;;;5054313;28;20403;-50
2021/11/15 10:10:44;;;;;;;22.80;10.83;;;;;;;;;;5056790;28;20406;-49
2021/11/15 10:13:14;;;;;;;19.73;11.50;;;;;;;;;;5055947;28;20508;-52
2021/11/15 10:15:46;;;;;;;16.80;11.70;;;;;;;;;;5055963;28;20403;-50
2021/11/15 10:18:12;;;;;;;17.27;11.37;;;;;;;;;;5055333;28;20404;-51
2021/11/15 10:20:52;;;;;;;19.07;11.27;;;;;;;;;;5054411;28;20744;-51
2021/11/15 10:23:32;;;;;;;18.23;11.03;;;;;;;;;;5054834;28;20438;-51
2021/11/15 10:26:00;;;;;;;21.67;10.80;;;;;;;;;;5054609;28;20410;-52
2021/11/15 10:28:28;;;;;;;14.17;10.37;;;;;;;;;;5054934;28;20773;-50
2021/11/15 10:30:54;;;;;;;16.63;10.30;;;;;;;;;;5054497;28;20489;-51
2021/11/15 10:33:20;;;;;;;13.67;8.60;;;;;;;;;;5053457;28;20508;-49
2021/11/15 10:35:52;;;;;;;18.50;10.50;;;;;;;;;;5035481;28;20755;-51
2021/11/15 10:38:18;;;;;;;14.60;9.80;;;;;;;;;;5053809;28;20404;-50
2021/11/15 10:40:44;;;;;;;14.03;9.80;;;;;;;;;;5053698;28;20961;-51
2021/11/15 10:43:10;;;;;;;15.27;9.30;;;;;;;;;;5053710;28;20458;-51
2021/11/15 10:45:39;;;;;;;17.33;9.90;;;;;;;;;;5053655;28;20415;-51
2021/11/15 10:48:09;;;;;;;18.23;9.43;;;;;;;;;;5053745;28;20497;-49
2021/11/15 10:50:49;;;;;;;14.73;9.87;;;;;;;;;;5053533;28;20403;-51
2021/11/15 10:53:19;;;;;;;13.17;9.43;;;;;;;;;;5053184;28;21049;-49
2021/11/15 10:56:04;;;;;;;13.40;9.10;;;;;;;;;;5053353;28;20476;-51
2021/11/15 10:58:37;;;;;;;16.07;9.03;;;;;;;;;;5053369;28;20850;-49
2021/11/15 11:01:05;;;;;;;14.17;9.17;;;;;;;;;;5053192;28;20442;-50
2021/11/15 11:03:31;;;;;;;16.07;10.10;;;;;;;;;;5052745;28;20938;-49
2021/11/15 11:06:00;;;;;;;18.87;9.90;;;;;;;;;;5052541;28;20405;-49
2021/11/15 11:08:27;;;;;;;15.70;9.83;;;;;;;;;;5052884;28;20829;-51
2021/11/15 11:11:06;;;;;;;17.47;9.90;;;;;;;;;;5053337;28;20448;-51
2021/11/15 11:14:00;;;;;;;16.40;10.03;;;;;;;;;;5052071;28;20796;-51
2021/11/15 11:16:36;;;;;;;17.97;10.77;;;;;;;;;;5050608;28;20917;-51
2021/11/15 11:19:14;;;;;;;18.57;10.67;;;;;;;;;;5034800;28;20410;-49
2021/11/15 11:21:56;;;;;;;22.90;12.40;;;;;;;;;;5053198;28;20482;-49
2021/11/15 11:24:47;;;;;;;20.23;11.17;;;;;;;;;;5052660;28;20546;-51
2021/11/15 11:27:16;;;;;;;18.17;10.97;;;;;;;;;;5052980;28;20768;-52
2021/11/15 11:29:45;;;;;;;21.67;11.20;;;;;;;;;;5052143;28;20497;-49
2021/11/15 11:32:12;;;;;;;16.80;10.50;;;;;;;;;;5050953;28;20524;-49
2021/11/15 11:34:39;;;;;;;20.30;11.00;;;;;;;;;;5051482;28;20469;-52
2021/11/15 11:37:06;;;;;;;22.30;12.50;;;;;;;;;;5050702;28;21182;-50
2021/11/15 11:39:35;;;;;;;20.10;12.23;;;;;;;;;;5050252;28;20411;-50
2021/11/15 11:42:01;;;;;;;17.80;11.13;;;;;;;;;;5052657;28;20461;-51
2021/11/15 11:44:28;;;;;;;19.00;10.90;;;;;;;;;;5052367;28;20768;-52
2021/11/15 11:46:55;;;;;;;16.07;10.27;;;;;;;;;;5053333;28;20405;-51
2021/11/15 11:49:25;;;;;;;18.40;10.13;;;;;;;;;;5053102;28;20883;-52
2021/11/15 11:51:51;;;;;;;19.73;10.87;;;;;;;;;;5052923;28;20496;-49
2021/11/15 11:54:17;;;;;;;19.50;9.27;;;;;;;;;;5052136;28;20460;-51
2021/11/15 11:56:58;;;;;;;19.70;11.27;;;;;;;;;;5052499;28;20772;-51
2021/11/15 11:59:25;;;;;;;21.23;9.90;;;;;;;;;;5052465;28;20456;-49
2021/11/15 12:02:03;;;;;;;20.80;10.73;;;;;;;;;;5052103;28;20411;-49
2021/11/15 12:04:29;;;;;;;16.63;9.43;;;;;;;;;;5052512;28;20616;-51
2021/11/15 12:06:55;;;;;;;26.80;10.73;;;;;;;;;;5052157;28;20409;-49
2021/11/15 12:09:22;;;;;;;18.60;10.67;;;;;;;;;;5052470;28;20400;-50
2021/11/15 12:12:14;;;;;;;19.40;10.83;;;;;;;;;;5052325;28;20504;-49
2021/11/15 12:14:41;;;;;;;20.90;10.50;;;;;;;;;;5049310;28;20756;-49
2021/11/15 12:17:07;;;;;;;17.00;10.30;;;;;;;;;;5052204;28;20409;-52
2021/11/15 12:19:52;;;;;;;21.60;11.03;;;;;;;;;;5052585;28;20406;-52
2021/11/15 12:22:22;;;;;;;23.70;11.17;;;;;;;;;;5052003;28;20395;-52
2021/11/15 12:25:08;;;;;;;16.50;10.90;;;;;;;;;;5052762;28;20399;-50
2021/11/15 12:27:46;;;;;;;17.70;10.50;;;;;;;;;;5055917;28;20407;-51
2021/11/15 12:30:27;;;;;;;18.77;10.00;;;;;;;;;;5055325;28;20470;-51
2021/11/15 12:33:19;;;;;;;20.00;10.67;;;;;;;;;;5057758;28;20474;-49
2021/11/15 12:35:56;;;;;;;20.40;11.03;;;;;;;;;;5055265;28;21023;-51
2021/11/15 12:38:34;;;;;;;20.03;10.93;;;;;;;;;;5055583;28;20901;-50
2021/11/15 12:41:00;;;;;;;17.03;10.47;;;;;;;;;;5055161;28;20791;-50
2021/11/15 12:43:26;;;;;;;17.83;10.60;;;;;;;;;;5055252;28;20451;-50
2021/11/15 12:46:08;;;;;;;22.07;11.17;;;;;;;;;;5055168;28;20404;-50
2021/11/15 12:48:35;;;;;;;20.73;11.13;;;;;;;;;;5054672;28;20460;-51
2021/11/15 12:51:09;;;;;;;22.50;12.40;;;;;;;;;;5054814;28;20734;-49
2021/11/15 12:53:36;;;;;;;20.50;10.77;;;;;;;;;;5054928;28;20456;-51
2021/11/15 12:56:02;;;;;;;22.27;11.60;;;;;;;;;;5055717;28;20841;-51
2021/11/15 12:58:28;;;;;;;18.80;10.90;;;;;;;;;;5055791;28;20395;-51
2021/11/15 13:00:56;;;;;;;17.93;11.63;;;;;;;;;;5055964;28;20421;-51
2021/11/15 13:03:22;;;;;;;20.80;11.57;;;;;;;;;;5055461;28;20418;-51
2021/11/15 13:05:50;;;;;;;18.87;11.23;;;;;;;;;;5055348;28;20406;-49
2021/11/15 13:08:16;;;;;;;19.50;11.37;;;;;;;;;;5054401;28;20431;-50
2021/11/15 13:10:47;;;;;;;24.20;11.10;;;;;;;;;;5055553;28;20419;-49
2021/11/15 13:13:15;;;;;;;15.93;9.80;;;;;;;;;;5054765;28;20465;-52
2021/11/15 13:15:41;;;;;;;18.63;10.53;;;;;;;;;;5055002;28;20403;-51
2021/11/15 13:18:08;;;;;;;16.50;9.80;;;;;;;;;;5054734;28;20407;-51
2021/11/15 13:20:34;;;;;;;13.50;9.77;;;;;;;;;;5055146;28;20437;-49
2021/11/15 13:23:00;;;;;;;19.23;11.60;;;;;;;;;;5055013;28;20445;-52
2021/11/15 13:25:28;;;;;;;17.90;11.43;;;;;;;;;;5055018;28;20411;-51
2021/11/15 13:27:54;;;;;;;19.47;11.03;;;;;;;;;;5055078;28;20412;-51
2021/11/15 13:30:21;;;;;;;20.93;10.07;;;;;;;;;;5054780;28;20813;-50
2021/11/15 13:32:51;;;;;;;27.83;11.97;;;;;;;;;;5054312;28;20467;-51
2021/11/15 13:35:18;;;;;;;17.10;10.33;;;;;;;;;;5054414;28;20415;-51
2021/11/15 13:37:44;;;;;;;22.57;11.90;;;;;;;;;;5056762;28;20398;-50
2021/11/15 13:40:11;;;;;;;16.83;9.70;;;;;;;;;;5057347;28;20822;-49
2021/11/15 13:42:37;;;;;;;17.33;10.50;;;;;;;;;;5057159;28;20804;-49
2021/11/15 13:45:04;;;;;;;18.57;10.50;;;;;;;;;;5058039;28;20406;-51
2021/11/15 13:47:30;;;;;;;21.07;10.40;;;;;;;;;;5058479;28;20887;-50
2021/11/15 13:49:56;;;;;;;18.33;11.23;;;;;;;;;;5057814;28;20412;-50
2021/11/15 13:52:23;;;;;;;16.57;10.67;;;;;;;;;;5057837;28;20959;-51
2021/11/15 13:54:50;;;;;;;18.67;10.30;;;;;;;;;;5057544;28;20401;-49
2021/11/15 13:57:18;;;;;;;17.33;10.90;;;;;;;;;;5057149;28;20925;-53
2021/11/15 13:59:45;;;;;;;14.10;9.57;;;;;;;;;;5056982;28;20884;-52
2021/11/15 14:02:11;;;;;;;16.23;10.23;;;;;;;;;;5056875;28;20503;-50
2021/11/15 14:04:37;;;;;;;15.50;9.83;;;;;;;;;;5057759;28;20402;-52
2021/11/15 14:07:03;;;;;;;19.13;10.37;;;;;;;;;;5057599;28;20431;-53
2021/11/15 14:09:30;;;;;;;15.73;9.87;;;;;;;;;;5057088;28;20425;-52
2021/11/15 14:11:56;;;;;;;17.10;9.37;;;;;;;;;;5057320;28;20454;-52
2021/11/15 14:14:22;;;;;;;19.90;11.00;;;;;;;;;;5056823;28;20752;-52
2021/11/15 14:16:48;;;;;;;18.23;9.50;;;;;;;;;;5055929;28;20415;-52
2021/11/15 14:19:14;;;;;;;17.90;10.20;;;;;;;;;;5055897;28;20398;-50
2021/11/15 14:21:40;;;;;;;19.13;9.87;;;;;;;;;;5055028;28;20491;-51